createdAt,value
2023-04-01T00:00:59.565Z,0.00
2023-04-01T00:01:59.579Z,0.00
2023-04-01T00:02:59.714Z,0.00
2023-04-01T00:03:59.681Z,0.00
2023-04-01T00:04:59.532Z,0.00
2023-04-01T00:05:59.525Z,0.00
2023-04-01T00:06:59.534Z,0.00
2023-04-01T00:07:59.503Z,0.00
2023-04-01T00:08:59.481Z,0.00
2023-04-01T00:09:59.468Z,0.00
2023-04-01T00:10:59.481Z,0.00
2023-04-01T00:11:59.462Z,0.00
2023-04-01T00:12:59.445Z,0.00
2023-04-01T00:13:59.473Z,0.00
2023-04-01T00:14:59.419Z,0.00
2023-04-01T00:16:00.274Z,0.00
2023-04-01T00:16:59.417Z,0.00
2023-04-01T00:17:59.433Z,0.00
2023-04-01T00:18:59.406Z,0.00
2023-04-01T00:19:59.399Z,0.00
2023-04-01T00:20:59.357Z,0.00
2023-04-01T00:21:59.346Z,0.00
2023-04-01T00:22:59.330Z,0.00
2023-04-01T00:23:59.327Z,0.00
2023-04-01T00:24:59.324Z,0.00
2023-04-01T00:25:59.336Z,0.00
2023-04-01T00:26:59.306Z,0.00
2023-04-01T00:27:59.289Z,0.00
2023-04-01T00:28:59.268Z,0.00
2023-04-01T00:29:59.259Z,0.00
2023-04-01T00:30:59.257Z,0.00
2023-04-01T00:31:59.394Z,0.00
2023-04-01T00:32:59.251Z,0.00
2023-04-01T00:33:59.220Z,0.00
2023-04-01T00:34:59.229Z,0.00
2023-04-01T00:35:59.233Z,0.00
2023-04-01T00:36:59.192Z,0.00
2023-04-01T00:37:59.199Z,0.00
2023-04-01T00:38:59.164Z,0.00
2023-04-01T00:39:59.158Z,0.00
2023-04-01T00:40:59.145Z,0.00
2023-04-01T00:41:59.152Z,0.00
2023-04-01T00:42:59.122Z,0.00
2023-04-01T00:43:59.146Z,0.00
2023-04-01T00:44:59.103Z,0.00
2023-04-01T00:45:59.096Z,0.00
2023-04-01T00:46:59.150Z,0.00
2023-04-01T00:47:59.159Z,0.00
2023-04-01T00:48:59.059Z,0.00
2023-04-01T00:49:59.083Z,0.00
2023-04-01T00:50:59.060Z,0.00
2023-04-01T00:51:59.029Z,0.00
2023-04-01T00:52:59.019Z,0.00
2023-04-01T00:53:59.033Z,0.00
2023-04-01T00:54:58.999Z,0.00
2023-04-01T00:55:59.030Z,0.00
2023-04-01T00:56:59.007Z,0.00
2023-04-01T00:57:59.010Z,0.00
2023-04-01T00:58:58.954Z,0.00
2023-04-01T00:59:58.957Z,0.00
2023-04-01T01:00:59.076Z,0.00
2023-04-01T01:01:58.986Z,0.00
2023-04-01T01:02:58.983Z,0.00
2023-04-01T01:03:58.903Z,0.00
2023-04-01T01:04:58.890Z,0.00
2023-04-01T01:05:58.901Z,0.00
2023-04-01T01:06:58.892Z,0.00
2023-04-01T01:07:58.883Z,0.00
2023-04-01T01:08:58.846Z,0.00
2023-04-01T01:09:58.854Z,0.00
2023-04-01T01:10:58.827Z,0.00
2023-04-01T01:11:58.828Z,0.00
2023-04-01T01:12:58.807Z,0.00
2023-04-01T01:13:58.825Z,0.00
2023-04-01T01:14:58.785Z,0.00
2023-04-01T01:15:58.782Z,0.00
2023-04-01T01:16:58.850Z,0.00
2023-04-01T01:17:58.826Z,0.00
2023-04-01T01:18:58.741Z,0.00
2023-04-01T01:19:58.765Z,0.00
2023-04-01T01:20:58.726Z,0.00
2023-04-01T01:21:58.721Z,0.00
2023-04-01T01:22:58.718Z,0.00
2023-04-01T01:23:58.697Z,0.00
2023-04-01T01:24:58.680Z,0.00
2023-04-01T01:25:58.705Z,0.00
2023-04-01T01:26:58.670Z,0.00
2023-04-01T01:27:58.649Z,0.00
2023-04-01T01:28:58.647Z,0.00
2023-04-01T01:29:58.627Z,0.00
2023-04-01T01:30:58.641Z,0.00
2023-04-01T01:31:58.646Z,0.00
2023-04-01T01:32:58.645Z,0.00
2023-04-01T01:33:58.584Z,0.00
2023-04-01T01:34:58.571Z,0.00
2023-04-01T01:35:58.580Z,0.00
2023-04-01T01:36:58.597Z,0.00
2023-04-01T01:37:58.577Z,0.00
2023-04-01T01:38:58.548Z,0.00
2023-04-01T01:39:58.521Z,0.00
2023-04-01T01:40:58.505Z,0.00
2023-04-01T01:41:58.496Z,0.00
2023-04-01T01:42:58.495Z,0.00
2023-04-01T01:43:58.512Z,0.00
2023-04-01T01:44:58.461Z,0.00
2023-04-01T01:45:58.493Z,0.00
2023-04-01T01:46:58.451Z,0.00
2023-04-01T01:47:58.449Z,0.00
2023-04-01T01:48:58.429Z,0.00
2023-04-01T01:49:58.453Z,0.00
2023-04-01T01:50:58.400Z,0.00
2023-04-01T01:51:58.390Z,0.00
2023-04-01T01:52:58.379Z,0.00
2023-04-01T01:53:58.389Z,0.00
2023-04-01T01:54:58.389Z,0.00
2023-04-01T01:55:58.388Z,0.00
2023-04-01T01:56:58.369Z,0.00
2023-04-01T01:57:58.334Z,0.00
2023-04-01T01:58:58.326Z,0.00
2023-04-01T01:59:58.307Z,0.00
2023-04-01T02:00:58.306Z,0.00
2023-04-01T02:01:58.455Z,0.00
2023-04-01T02:02:58.373Z,0.00
2023-04-01T02:03:58.268Z,0.00
2023-04-01T02:04:58.301Z,0.00
2023-04-01T02:05:58.260Z,0.00
2023-04-01T02:06:58.253Z,0.00
2023-04-01T02:07:58.256Z,0.00
2023-04-01T02:08:58.217Z,0.00
2023-04-01T02:09:58.200Z,0.00
2023-04-01T02:10:58.208Z,0.00
2023-04-01T02:11:58.193Z,0.00
2023-04-01T02:12:58.180Z,0.00
2023-04-01T02:13:58.193Z,0.00
2023-04-01T02:14:58.146Z,0.00
2023-04-01T02:15:58.149Z,0.00
2023-04-01T02:16:58.136Z,0.00
2023-04-01T02:17:58.279Z,0.00
2023-04-01T02:18:58.122Z,0.00
2023-04-01T02:19:58.148Z,0.00
2023-04-01T02:20:58.086Z,0.00
2023-04-01T02:21:58.078Z,0.00
2023-04-01T02:22:58.064Z,0.00
2023-04-01T02:23:58.055Z,0.00
2023-04-01T02:24:58.071Z,0.00
2023-04-01T02:25:58.053Z,0.00
2023-04-01T02:26:58.035Z,0.00
2023-04-01T02:27:58.007Z,0.00
2023-04-01T02:28:58.004Z,0.00
2023-04-01T02:29:57.990Z,0.00
2023-04-01T02:30:58.017Z,0.00
2023-04-01T02:31:57.996Z,0.00
2023-04-01T02:32:58.038Z,0.00
2023-04-01T02:33:57.941Z,0.00
2023-04-01T02:34:57.937Z,0.00
2023-04-01T02:35:57.973Z,0.00
2023-04-01T02:36:57.921Z,0.00
2023-04-01T02:37:57.941Z,0.00
2023-04-01T02:38:57.916Z,0.00
2023-04-01T02:39:57.878Z,0.00
2023-04-01T02:40:57.870Z,0.00
2023-04-01T02:41:57.866Z,0.00
2023-04-01T02:42:57.863Z,0.00
2023-04-01T02:43:57.864Z,0.00
2023-04-01T02:44:57.842Z,0.00
2023-04-01T02:45:57.822Z,0.00
2023-04-01T02:46:57.927Z,0.00
2023-04-01T02:47:57.843Z,0.00
2023-04-01T02:48:57.783Z,0.00
2023-04-01T02:49:57.798Z,0.00
2023-04-01T02:50:57.790Z,0.00
2023-04-01T02:51:57.758Z,0.00
2023-04-01T02:52:57.742Z,0.00
2023-04-01T02:53:57.734Z,0.00
2023-04-01T02:54:57.723Z,0.00
2023-04-01T02:55:57.739Z,0.00
2023-04-01T02:56:57.774Z,0.00
2023-04-01T02:57:57.694Z,0.00
2023-04-01T02:58:57.699Z,0.00
2023-04-01T02:59:57.674Z,0.00
2023-04-01T03:00:57.704Z,0.00
2023-04-01T03:01:57.736Z,0.00
2023-04-01T03:02:57.863Z,0.00
2023-04-01T03:03:57.629Z,0.00
2023-04-01T03:04:57.617Z,0.00
2023-04-01T03:05:57.607Z,0.00
2023-04-01T03:06:57.594Z,0.00
2023-04-01T03:07:57.627Z,0.00
2023-04-01T03:08:57.591Z,0.00
2023-04-01T03:09:57.579Z,0.00
2023-04-01T03:10:59.555Z,0.00
2023-04-01T03:11:57.547Z,0.00
2023-04-01T03:12:57.548Z,0.00
2023-04-01T03:13:57.551Z,0.00
2023-04-01T03:14:57.533Z,0.00
2023-04-01T03:15:58.502Z,0.00
2023-04-01T03:16:57.561Z,0.00
2023-04-01T03:17:57.530Z,0.00
2023-04-01T03:18:57.484Z,0.00
2023-04-01T03:19:57.514Z,0.00
2023-04-01T03:20:57.447Z,0.00
2023-04-01T03:21:57.456Z,0.00
2023-04-01T03:22:57.424Z,0.00
2023-04-01T03:23:57.422Z,0.00
2023-04-01T03:24:57.464Z,0.00
2023-04-01T03:25:57.398Z,0.00
2023-04-01T03:26:57.379Z,0.00
2023-04-01T03:27:57.375Z,0.00
2023-04-01T03:28:57.372Z,0.00
2023-04-01T03:29:57.427Z,0.00
2023-04-01T03:30:57.545Z,0.00
2023-04-01T03:31:57.330Z,0.00
2023-04-01T03:32:57.387Z,0.00
2023-04-01T03:33:57.314Z,0.00
2023-04-01T03:34:57.293Z,0.00
2023-04-01T03:35:57.318Z,0.00
2023-04-01T03:36:57.317Z,0.00
2023-04-01T03:37:57.264Z,0.00
2023-04-01T03:38:57.258Z,0.00
2023-04-01T03:39:57.246Z,0.00
2023-04-01T03:40:57.231Z,0.00
2023-04-01T03:41:57.232Z,0.00
2023-04-01T03:42:57.326Z,0.00
2023-04-01T03:43:57.205Z,0.00
2023-04-01T03:44:57.188Z,0.00
2023-04-01T03:45:57.214Z,0.00
2023-04-01T03:46:57.200Z,0.00
2023-04-01T03:47:57.210Z,0.00
2023-04-01T03:48:57.169Z,0.00
2023-04-01T03:49:57.138Z,0.00
2023-04-01T03:50:57.127Z,0.00
2023-04-01T03:51:57.139Z,0.00
2023-04-01T03:52:57.106Z,0.00
2023-04-01T03:53:57.095Z,0.00
2023-04-01T03:54:57.123Z,0.00
2023-04-01T03:55:57.080Z,0.00
2023-04-01T03:56:57.075Z,0.00
2023-04-01T03:57:57.063Z,0.00
2023-04-01T03:58:57.058Z,0.00
2023-04-01T03:59:57.032Z,0.00
2023-04-01T04:00:57.071Z,0.00
2023-04-01T04:01:57.016Z,0.00
2023-04-01T04:02:57.098Z,0.00
2023-04-01T04:03:57.058Z,0.00
2023-04-01T04:04:56.990Z,0.00
2023-04-01T04:05:56.972Z,0.00
2023-04-01T04:06:56.992Z,0.00
2023-04-01T04:07:56.954Z,0.00
2023-04-01T04:08:56.933Z,0.00
2023-04-01T04:09:56.928Z,0.00
2023-04-01T04:10:56.928Z,0.00
2023-04-01T04:11:56.910Z,0.00
2023-04-01T04:12:56.961Z,0.00
2023-04-01T04:13:57.987Z,0.00
2023-04-01T04:14:56.881Z,0.00
2023-04-01T04:15:56.872Z,0.00
2023-04-01T04:16:56.860Z,0.00
2023-04-01T04:17:56.869Z,0.00
2023-04-01T04:18:56.867Z,0.00
2023-04-01T04:19:56.821Z,0.00
2023-04-01T04:20:56.822Z,0.00
2023-04-01T04:21:56.798Z,0.00
2023-04-01T04:22:56.788Z,0.00
2023-04-01T04:23:56.781Z,0.00
2023-04-01T04:24:56.803Z,0.00
2023-04-01T04:25:56.760Z,0.00
2023-04-01T04:26:56.776Z,0.00
2023-04-01T04:27:56.740Z,0.00
2023-04-01T04:28:56.741Z,0.00
2023-04-01T04:29:56.711Z,0.00
2023-04-01T04:30:56.738Z,0.00
2023-04-01T04:31:56.714Z,0.00
2023-04-01T04:32:56.739Z,4.00
2023-04-01T04:33:56.693Z,4.00
2023-04-01T04:34:56.709Z,4.00
2023-04-01T04:35:56.717Z,4.00
2023-04-01T04:36:56.655Z,8.00
2023-04-01T04:37:56.627Z,8.00
2023-04-01T04:38:56.619Z,8.00
2023-04-01T04:39:56.612Z,8.00
2023-04-01T04:40:56.614Z,12.00
2023-04-01T04:41:56.583Z,16.00
2023-04-01T04:42:56.610Z,20.00
2023-04-01T04:43:56.580Z,20.00
2023-04-01T04:44:56.554Z,24.00
2023-04-01T04:45:56.539Z,32.00
2023-04-01T04:46:58.406Z,40.00
2023-04-01T04:47:56.556Z,44.00
2023-04-01T04:48:56.556Z,52.00
2023-04-01T04:49:56.502Z,60.00
2023-04-01T04:50:56.512Z,72.00
2023-04-01T04:51:56.477Z,84.00
2023-04-01T04:52:56.467Z,96.00
2023-04-01T04:53:56.470Z,116.00
2023-04-01T04:54:56.489Z,128.00
2023-04-01T04:55:56.442Z,144.00
2023-04-01T04:56:56.487Z,160.00
2023-04-01T04:57:56.426Z,176.00
2023-04-01T04:58:56.415Z,196.00
2023-04-01T04:59:56.392Z,220.00
2023-04-01T05:00:56.435Z,244.00
2023-04-01T05:01:56.368Z,272.00
2023-04-01T05:02:56.475Z,300.00
2023-04-01T05:03:56.366Z,336.00
2023-04-01T05:04:56.343Z,356.00
2023-04-01T05:05:56.326Z,372.00
2023-04-01T05:06:56.362Z,396.00
2023-04-01T05:07:56.305Z,408.00
2023-04-01T05:08:56.295Z,432.00
2023-04-01T05:09:56.302Z,452.00
2023-04-01T05:10:56.272Z,476.00
2023-04-01T05:11:56.262Z,512.00
2023-04-01T05:12:56.281Z,540.00
2023-04-01T05:13:56.238Z,572.00
2023-04-01T05:14:56.237Z,596.00
2023-04-01T05:15:56.228Z,616.00
2023-04-01T05:16:56.233Z,640.00
2023-04-01T05:17:56.227Z,664.00
2023-04-01T05:18:56.231Z,688.00
2023-04-01T05:19:56.188Z,724.00
2023-04-01T05:20:56.188Z,756.00
2023-04-01T05:21:56.154Z,772.00
2023-04-01T05:22:56.166Z,796.00
2023-04-01T05:23:56.136Z,860.00
2023-04-01T05:24:56.177Z,968.00
2023-04-01T05:25:56.109Z,1068.00
2023-04-01T05:26:57.040Z,1192.00
2023-04-01T05:27:56.093Z,1228.00
2023-04-01T05:28:56.090Z,1264.00
2023-04-01T05:29:56.065Z,1388.00
2023-04-01T05:30:56.165Z,1476.00
2023-04-01T05:31:56.043Z,1604.00
2023-04-01T05:32:56.105Z,1660.00
2023-04-01T05:33:56.024Z,1708.00
2023-04-01T05:34:56.019Z,1776.00
2023-04-01T05:35:56.036Z,1768.00
2023-04-01T05:36:56.036Z,1816.00
2023-04-01T05:37:55.982Z,1956.00
2023-04-01T05:38:56.001Z,2032.00
2023-04-01T05:39:55.976Z,2052.00
2023-04-01T05:40:55.951Z,2024.00
2023-04-01T05:41:55.949Z,2012.00
2023-04-01T05:42:55.962Z,2076.00
2023-04-01T05:43:55.942Z,2176.00
2023-04-01T05:44:55.910Z,2324.00
2023-04-01T05:45:55.936Z,2524.00
2023-04-01T05:46:55.890Z,2804.00
2023-04-01T05:47:55.909Z,3116.00
2023-04-01T05:48:55.915Z,3392.00
2023-04-01T05:49:55.856Z,3736.00
2023-04-01T05:50:55.846Z,4264.00
2023-04-01T05:51:55.849Z,4800.00
2023-04-01T05:52:55.825Z,5396.00
2023-04-01T05:53:55.810Z,6152.00
2023-04-01T05:54:55.844Z,6692.00
2023-04-01T05:55:55.792Z,7088.00
2023-04-01T05:56:55.798Z,7604.00
2023-04-01T05:57:55.801Z,8348.00
2023-04-01T05:58:55.776Z,9972.00
2023-04-01T05:59:55.758Z,11436.00
2023-04-01T06:01:08.122Z,11540.00
2023-04-01T06:01:58.349Z,12992.00
2023-04-01T06:02:55.804Z,12464.00
2023-04-01T06:03:55.931Z,11456.00
2023-04-01T06:04:55.753Z,7028.00
2023-04-01T06:05:55.688Z,7936.00
2023-04-01T06:06:55.713Z,7280.00
2023-04-01T06:07:55.659Z,7296.00
2023-04-01T06:08:55.656Z,7720.00
2023-04-01T06:09:55.638Z,8720.00
2023-04-01T06:10:55.658Z,9964.00
2023-04-01T06:11:55.617Z,10308.00
2023-04-01T06:12:55.657Z,10176.00
2023-04-01T06:13:55.596Z,10456.00
2023-04-01T06:14:55.596Z,10412.00
2023-04-01T06:15:55.603Z,10584.00
2023-04-01T06:16:55.586Z,11132.00
2023-04-01T06:17:55.585Z,12296.00
2023-04-01T06:18:55.567Z,10944.00
2023-04-01T06:19:55.531Z,9212.00
2023-04-01T06:20:55.527Z,8256.00
2023-04-01T06:21:55.541Z,8092.00
2023-04-01T06:22:55.581Z,8104.00
2023-04-01T06:23:55.492Z,8032.00
2023-04-01T06:24:55.508Z,7872.00
2023-04-01T06:25:55.476Z,7500.00
2023-04-01T06:26:55.490Z,6944.00
2023-04-01T06:27:55.453Z,6280.00
2023-04-01T06:28:55.512Z,5552.00
2023-04-01T06:29:55.428Z,4964.00
2023-04-01T06:30:55.469Z,4612.00
2023-04-01T06:31:55.483Z,4536.00
2023-04-01T06:32:55.465Z,4500.00
2023-04-01T06:33:55.397Z,4436.00
2023-04-01T06:34:55.388Z,4560.00
2023-04-01T06:35:55.421Z,4868.00
2023-04-01T06:36:55.420Z,5016.00
2023-04-01T06:37:55.347Z,5036.00
2023-04-01T06:38:55.356Z,5220.00
2023-04-01T06:39:55.330Z,5548.00
2023-04-01T06:40:55.316Z,5972.00
2023-04-01T06:41:55.302Z,6304.00
2023-04-01T06:42:55.339Z,6416.00
2023-04-01T06:43:55.279Z,6872.00
2023-04-01T06:44:55.283Z,8100.00
2023-04-01T06:45:55.289Z,9728.00
2023-04-01T06:46:55.252Z,11276.00
2023-04-01T06:47:55.349Z,12484.00
2023-04-01T06:48:55.258Z,12664.00
2023-04-01T06:49:55.218Z,12444.00
2023-04-01T06:50:55.208Z,11880.00
2023-04-01T06:51:55.225Z,11180.00
2023-04-01T06:52:55.187Z,9800.00
2023-04-01T06:53:55.188Z,8560.00
2023-04-01T06:54:55.189Z,7968.00
2023-04-01T06:55:55.152Z,8328.00
2023-04-01T06:56:55.151Z,8572.00
2023-04-01T06:57:55.151Z,8200.00
2023-04-01T06:58:55.166Z,7480.00
2023-04-01T06:59:55.111Z,6556.00
2023-04-01T07:00:55.143Z,5636.00
2023-04-01T07:01:55.090Z,5604.00
2023-04-01T07:02:55.217Z,6412.00
2023-04-01T07:03:55.128Z,7792.00
2023-04-01T07:04:55.058Z,9352.00
2023-04-01T07:05:55.054Z,10840.00
2023-04-01T07:06:55.073Z,12380.00
2023-04-01T07:07:55.032Z,14488.00
2023-04-01T07:08:55.016Z,17024.00
2023-04-01T07:09:55.024Z,19744.00
2023-04-01T07:10:55.218Z,21952.00
2023-04-01T07:11:54.981Z,23872.00
2023-04-01T07:12:54.983Z,26304.00
2023-04-01T07:13:54.961Z,25920.00
2023-04-01T07:14:54.968Z,29664.00
2023-04-01T07:15:56.079Z,27424.00
2023-04-01T07:16:54.953Z,20704.00
2023-04-01T07:17:55.057Z,16292.00
2023-04-01T07:18:54.940Z,15332.00
2023-04-01T07:19:54.904Z,15404.00
2023-04-01T07:20:54.879Z,16116.00
2023-04-01T07:21:54.872Z,15840.00
2023-04-01T07:22:54.861Z,14984.00
2023-04-01T07:23:54.847Z,15084.00
2023-04-01T07:24:54.985Z,16780.00
2023-04-01T07:25:54.825Z,20064.00
2023-04-01T07:26:54.817Z,23168.00
2023-04-01T07:27:54.805Z,32544.00
2023-04-01T07:28:54.823Z,34976.00
2023-04-01T07:29:54.781Z,39712.00
2023-04-01T07:30:54.833Z,46624.00
2023-04-01T07:31:54.767Z,45824.00
2023-04-01T07:32:54.781Z,60352.00
2023-04-01T07:33:54.737Z,48256.00
2023-04-01T07:34:54.738Z,28160.00
2023-04-01T07:35:54.730Z,59552.00
2023-04-01T07:36:54.780Z,28864.00
2023-04-01T07:37:54.698Z,20576.00
2023-04-01T07:38:54.738Z,18592.00
2023-04-01T07:39:54.676Z,18080.00
2023-04-01T07:40:54.674Z,16896.00
2023-04-01T07:41:54.673Z,15452.00
2023-04-01T07:42:54.675Z,14860.00
2023-04-01T07:43:54.634Z,15072.00
2023-04-01T07:44:54.631Z,15000.00
2023-04-01T07:45:54.647Z,13844.00
2023-04-01T07:46:54.634Z,14012.00
2023-04-01T07:47:54.634Z,15920.00
2023-04-01T07:48:54.609Z,18144.00
2023-04-01T07:49:54.571Z,20544.00
2023-04-01T07:50:54.574Z,23360.00
2023-04-01T07:51:54.563Z,29920.00
2023-04-01T07:52:54.540Z,28544.00
2023-04-01T07:53:54.528Z,24256.00
2023-04-01T07:54:54.547Z,22208.00
2023-04-01T07:55:54.511Z,28128.00
2023-04-01T07:56:54.531Z,41952.00
2023-04-01T07:57:54.511Z,55872.00
2023-04-01T07:58:54.509Z,55392.00
2023-04-01T07:59:54.466Z,24800.00
2023-04-01T08:00:54.470Z,26016.00
2023-04-01T08:01:54.442Z,66432.00
2023-04-01T08:02:54.581Z,67808.00
2023-04-01T08:03:54.592Z,79872.00
2023-04-01T08:04:54.495Z,48288.00
2023-04-01T08:05:54.405Z,39392.00
2023-04-01T08:06:54.421Z,36192.00
2023-04-01T08:07:54.376Z,33824.00
2023-04-01T08:08:54.379Z,30016.00
2023-04-01T08:09:54.356Z,27040.00
2023-04-01T08:10:54.347Z,24512.00
2023-04-01T08:11:54.348Z,24928.00
2023-04-01T08:12:54.363Z,33728.00
2023-04-01T08:13:54.330Z,57312.00
2023-04-01T08:14:54.301Z,97696.00
2023-04-01T08:15:54.324Z,101248.00
2023-04-01T08:16:54.740Z,95872.00
2023-04-01T08:17:54.286Z,93632.00
2023-04-01T08:18:54.309Z,93792.00
2023-04-01T08:19:54.254Z,35392.00
2023-04-01T08:20:54.236Z,39328.00
2023-04-01T08:21:54.226Z,37504.00
2023-04-01T08:22:54.215Z,38528.00
2023-04-01T08:23:54.214Z,65568.00
2023-04-01T08:24:54.236Z,78048.00
2023-04-01T08:25:54.180Z,46912.00
2023-04-01T08:26:54.180Z,47776.00
2023-04-01T08:27:54.158Z,62144.00
2023-04-01T08:28:54.148Z,38080.00
2023-04-01T08:29:54.144Z,39232.00
2023-04-01T08:30:54.163Z,54496.00
2023-04-01T08:31:54.166Z,84288.00
2023-04-01T08:32:54.169Z,89280.00
2023-04-01T08:33:54.118Z,55424.00
2023-04-01T08:34:54.107Z,54368.00
2023-04-01T08:35:54.103Z,42848.00
2023-04-01T08:36:54.078Z,44448.00
2023-04-01T08:37:54.049Z,34464.00
2023-04-01T08:38:54.043Z,33280.00
2023-04-01T08:39:54.050Z,33568.00
2023-04-01T08:40:54.017Z,35456.00
2023-04-01T08:41:54.032Z,65664.00
2023-04-01T08:42:54.019Z,44480.00
2023-04-01T08:43:53.982Z,43520.00
2023-04-01T08:44:53.975Z,57024.00
2023-04-01T08:45:54.047Z,67616.00
2023-04-01T08:46:53.966Z,46272.00
2023-04-01T08:47:54.018Z,48384.00
2023-04-01T08:48:53.949Z,59488.00
2023-04-01T08:49:53.923Z,42496.00
2023-04-01T08:50:53.932Z,35744.00
2023-04-01T08:51:53.904Z,33376.00
2023-04-01T08:52:53.895Z,40544.00
2023-04-01T08:53:53.880Z,58432.00
2023-04-01T08:54:53.901Z,76192.00
2023-04-01T08:55:53.857Z,71456.00
2023-04-01T08:56:53.874Z,46144.00
2023-04-01T08:57:54.724Z,48192.00
2023-04-01T08:58:53.822Z,38368.00
2023-04-01T08:59:53.819Z,48768.00
2023-04-01T09:00:53.819Z,98688.00
2023-04-01T09:01:53.839Z,108736.00
2023-04-01T09:02:53.876Z,116224.00
2023-04-01T09:03:53.882Z,95712.00
2023-04-01T09:04:53.757Z,44320.00
2023-04-01T09:05:53.753Z,43168.00
2023-04-01T09:06:53.780Z,41664.00
2023-04-01T09:07:53.730Z,44416.00
2023-04-01T09:08:53.718Z,48224.00
2023-04-01T09:09:53.706Z,46464.00
2023-04-01T09:10:53.697Z,122784.00
2023-04-01T09:11:53.757Z,134208.00
2023-04-01T09:12:53.692Z,131872.00
2023-04-01T09:13:53.664Z,130560.00
2023-04-01T09:14:53.652Z,122080.00
2023-04-01T09:15:53.704Z,117792.00
2023-04-01T09:16:53.627Z,56224.00
2023-04-01T09:17:53.677Z,64032.00
2023-04-01T09:18:53.627Z,47552.00
2023-04-01T09:19:53.608Z,89824.00
2023-04-01T09:20:53.586Z,94784.00
2023-04-01T09:21:53.577Z,34240.00
2023-04-01T09:22:53.586Z,31616.00
2023-04-01T09:23:53.585Z,32224.00
2023-04-01T09:24:53.571Z,34304.00
2023-04-01T09:25:53.540Z,38336.00
2023-04-01T09:26:53.526Z,135808.00
2023-04-01T09:27:53.517Z,142112.00
2023-04-01T09:28:53.507Z,136192.00
2023-04-01T09:29:53.506Z,48640.00
2023-04-01T09:30:53.502Z,32352.00
2023-04-01T09:31:53.544Z,31264.00
2023-04-01T09:32:53.498Z,31552.00
2023-04-01T09:33:53.462Z,34464.00
2023-04-01T09:34:54.418Z,42816.00
2023-04-01T09:35:53.466Z,58496.00
2023-04-01T09:36:53.434Z,93632.00
2023-04-01T09:37:53.423Z,68032.00
2023-04-01T09:38:53.418Z,62656.00
2023-04-01T09:39:53.390Z,37760.00
2023-04-01T09:40:53.401Z,34464.00
2023-04-01T09:41:53.370Z,33088.00
2023-04-01T09:42:53.372Z,32832.00
2023-04-01T09:43:53.347Z,35392.00
2023-04-01T09:44:53.332Z,42656.00
2023-04-01T09:45:53.335Z,46240.00
2023-04-01T09:46:53.327Z,67072.00
2023-04-01T09:47:53.352Z,44640.00
2023-04-01T09:48:53.317Z,42432.00
2023-04-01T09:49:53.282Z,54208.00
2023-04-01T09:50:53.267Z,38336.00
2023-04-01T09:51:53.261Z,40832.00
2023-04-01T09:52:53.255Z,51424.00
2023-04-01T09:53:53.236Z,40896.00
2023-04-01T09:54:53.246Z,40256.00
2023-04-01T09:55:53.216Z,61184.00
2023-04-01T09:56:53.218Z,36160.00
2023-04-01T09:57:53.203Z,37504.00
2023-04-01T09:58:53.177Z,45088.00
2023-04-01T09:59:53.171Z,63872.00
2023-04-01T10:00:53.166Z,54656.00
2023-04-01T10:01:53.181Z,51200.00
2023-04-01T10:02:53.190Z,91712.00
2023-04-01T10:03:53.127Z,53216.00
2023-04-01T10:04:53.115Z,67232.00
2023-04-01T10:05:53.146Z,41792.00
2023-04-01T10:06:53.111Z,40032.00
2023-04-01T10:07:53.081Z,38496.00
2023-04-01T10:08:53.191Z,34240.00
2023-04-01T10:09:53.062Z,33344.00
2023-04-01T10:10:53.073Z,34944.00
2023-04-01T10:11:53.039Z,36256.00
2023-04-01T10:12:53.037Z,36768.00
2023-04-01T10:13:53.017Z,42560.00
2023-04-01T10:14:53.014Z,46400.00
2023-04-01T10:15:53.020Z,44448.00
2023-04-01T10:16:54.383Z,52512.00
2023-04-01T10:17:53.067Z,115776.00
2023-04-01T10:18:52.974Z,113792.00
2023-04-01T10:19:52.962Z,59616.00
2023-04-01T10:20:52.960Z,39456.00
2023-04-01T10:21:52.933Z,44352.00
2023-04-01T10:22:52.914Z,115616.00
2023-04-01T10:23:52.908Z,117344.00
2023-04-01T10:24:52.920Z,130816.00
2023-04-01T10:25:52.888Z,141504.00
2023-04-01T10:26:52.913Z,142176.00
2023-04-01T10:27:52.871Z,99776.00
2023-04-01T10:28:52.848Z,49760.00
2023-04-01T10:29:52.840Z,85280.00
2023-04-01T10:30:52.842Z,49088.00
2023-04-01T10:31:52.862Z,60608.00
2023-04-01T10:32:52.868Z,59936.00
2023-04-01T10:33:52.811Z,92800.00
2023-04-01T10:34:52.781Z,93856.00
2023-04-01T10:35:52.852Z,69024.00
2023-04-01T10:36:52.770Z,41376.00
2023-04-01T10:37:52.754Z,36960.00
2023-04-01T10:38:52.750Z,61632.00
2023-04-01T10:39:52.728Z,40224.00
2023-04-01T10:40:52.714Z,37344.00
2023-04-01T10:41:52.707Z,38272.00
2023-04-01T10:42:52.729Z,38720.00
2023-04-01T10:43:52.736Z,42592.00
2023-04-01T10:44:52.674Z,39360.00
2023-04-01T10:45:52.686Z,35776.00
2023-04-01T10:46:52.668Z,35936.00
2023-04-01T10:47:52.833Z,44128.00
2023-04-01T10:48:52.645Z,38560.00
2023-04-01T10:49:52.627Z,39296.00
2023-04-01T10:50:52.609Z,36448.00
2023-04-01T10:51:52.597Z,33536.00
2023-04-01T10:52:52.619Z,31136.00
2023-04-01T10:53:52.576Z,30944.00
2023-04-01T10:54:52.581Z,32384.00
2023-04-01T10:55:52.580Z,35712.00
2023-04-01T10:56:52.612Z,36064.00
2023-04-01T10:57:52.529Z,35712.00
2023-04-01T10:58:52.563Z,32736.00
2023-04-01T10:59:52.516Z,30688.00
2023-04-01T11:00:52.562Z,31296.00
2023-04-01T11:02:04.087Z,32864.00
2023-04-01T11:02:53.533Z,33120.00
2023-04-01T11:03:52.566Z,31168.00
2023-04-01T11:04:52.496Z,30112.00
2023-04-01T11:05:52.443Z,28896.00
2023-04-01T11:06:52.474Z,28576.00
2023-04-01T11:08:04.881Z,28256.00
2023-04-01T11:08:53.412Z,27904.00
2023-04-01T11:09:52.401Z,27136.00
2023-04-01T11:10:52.451Z,25312.00
2023-04-01T11:11:52.380Z,24256.00
2023-04-01T11:12:52.392Z,23520.00
2023-04-01T11:13:52.359Z,23104.00
2023-04-01T11:14:52.380Z,22400.00
2023-04-01T11:15:52.365Z,20416.00
2023-04-01T11:16:52.340Z,20448.00
2023-04-01T11:17:52.367Z,20608.00
2023-04-01T11:18:52.330Z,20608.00
2023-04-01T11:19:52.304Z,19872.00
2023-04-01T11:20:52.281Z,19264.00
2023-04-01T11:21:52.279Z,18656.00
2023-04-01T11:22:52.282Z,18176.00
2023-04-01T11:24:04.583Z,18336.00
2023-04-01T11:24:53.271Z,19040.00
2023-04-01T11:25:52.241Z,20320.00
2023-04-01T11:26:52.437Z,21760.00
2023-04-01T11:27:52.205Z,22944.00
2023-04-01T11:28:52.195Z,23872.00
2023-04-01T11:29:59.653Z,24704.00
2023-04-01T11:30:53.216Z,25056.00
2023-04-01T11:31:52.283Z,25568.00
2023-04-01T11:32:52.208Z,26432.00
2023-04-01T11:33:52.142Z,28288.00
2023-04-01T11:34:52.137Z,27712.00
2023-04-01T11:35:52.118Z,28224.00
2023-04-01T11:36:52.161Z,27104.00
2023-04-01T11:37:52.095Z,27648.00
2023-04-01T11:38:52.117Z,28960.00
2023-04-01T11:39:52.082Z,30816.00
2023-04-01T11:40:52.066Z,32544.00
2023-04-01T11:41:52.049Z,33536.00
2023-04-01T11:42:52.083Z,35072.00
2023-04-01T11:43:52.033Z,36512.00
2023-04-01T11:44:52.018Z,39008.00
2023-04-01T11:45:52.037Z,41728.00
2023-04-01T11:46:52.024Z,43200.00
2023-04-01T11:47:52.002Z,43200.00
2023-04-01T11:48:52.008Z,42016.00
2023-04-01T11:49:51.959Z,38624.00
2023-04-01T11:50:51.962Z,34368.00
2023-04-01T11:51:51.954Z,31616.00
2023-04-01T11:52:51.933Z,29280.00
2023-04-01T11:53:51.920Z,27328.00
2023-04-01T11:54:51.929Z,25856.00
2023-04-01T11:55:51.894Z,24448.00
2023-04-01T11:56:51.919Z,23040.00
2023-04-01T11:57:51.891Z,21760.00
2023-04-01T11:58:51.870Z,20448.00
2023-04-01T11:59:51.856Z,18880.00
2023-04-01T12:00:51.862Z,17024.00
2023-04-01T12:01:51.840Z,16640.00
2023-04-01T12:02:51.986Z,17280.00
2023-04-01T12:03:51.959Z,18016.00
2023-04-01T12:04:51.846Z,19008.00
2023-04-01T12:05:51.787Z,19872.00
2023-04-01T12:06:51.795Z,20704.00
2023-04-01T12:07:51.765Z,21056.00
2023-04-01T12:08:51.768Z,20992.00
2023-04-01T12:09:51.742Z,20640.00
2023-04-01T12:10:51.740Z,20704.00
2023-04-01T12:11:51.721Z,20800.00
2023-04-01T12:13:00.649Z,20768.00
2023-04-01T12:13:52.711Z,20864.00
2023-04-01T12:14:51.705Z,21056.00
2023-04-01T12:15:51.681Z,21216.00
2023-04-01T12:16:51.757Z,21216.00
2023-04-01T12:17:51.717Z,21152.00
2023-04-01T12:18:51.673Z,20992.00
2023-04-01T12:19:51.645Z,20800.00
2023-04-01T12:20:51.626Z,20480.00
2023-04-01T12:21:51.632Z,20576.00
2023-04-01T12:22:51.610Z,20864.00